Hlavní strana
METAR-TAF:

METAR-TAF

Letiště :

Raleigh-Durham International Airport

Raleigh / Durham, Severní Karolína, Spojené státy americké

zeměpisná šířka: 35-52-14N, zeměpisná délka: 078-47-11W, výška: 133 m

Aktuální stav počasí

Zpráva byla vytvořena před 43 minutami, v 16:51 UTC
Jihojihozápadní vítr 4 kt
Teplota 33°C
Vlhkost vzduchu 34%
Tlak 1015 hPa
Viditelnost: 16.1 km
Skoro jasno ve výšce 6500 ft
Skoro jasno ve výšce 25000 ft

METAR: KRDU 031651Z COR 20004KT 10SM FEW065 FEW250 33/15 A2996 RMK AO2 SLP140 T03280150

Čas: 13:34 (17:34 UTC)

Předpověď počasí

Zpráva byla vytvořena před 6 hodinami a 14 minutami, v 11:20 UTC
Předpověď platná od 03 v 12 UTC do 04 v 12 UTC
vítr z různých směrů 3 kt
Viditelnost: 10 km
Polojasno ve výšce 25000 ft
Dočasný
od 03 v 17 UTC do 03 v 21 UTC
Oblačno až skoro zataženo ve výšce 5000 ft

TAF: KRDU 031120Z 0312/0412 VRB03KT P6SM SCT250 TEMPO 0317/0321 BKN050

Stav a předpovědi počasí z více než 4 000 letišť (zprávy METAR a TAF).

Červené a žluté tečky na mapě představují dostupné meteorologické stanice.

Když kurzor umístíte na tečku, zobrazí se název stanice.

Pak kliknutím zobrazíte stav a předpověď počasí.

Chcete-li změnit mapu, kliknutím na zelené tlačítko se znaménkem +mapu přiblížíte, kliknutím na zelené tlačítko se znaménkem – mapu oddálíte a kliknutím na zelené šipky přejdete na sousední mapy.


METAR-TAF: